createdAt,value
2022-12-04T00:00:32.027Z,6.08
2022-12-04T00:03:35.215Z,6.06
2022-12-04T00:06:37.510Z,5.91
2022-12-04T00:09:40.035Z,5.95
2022-12-04T00:12:42.310Z,5.83
2022-12-04T00:15:45.104Z,5.88
2022-12-04T00:18:47.544Z,5.96
2022-12-04T00:21:52.291Z,5.96
2022-12-04T00:24:54.522Z,5.92
2022-12-04T00:27:57.449Z,5.91
2022-12-04T00:30:59.928Z,5.88
2022-12-04T00:34:02.529Z,5.84
2022-12-04T00:37:04.817Z,5.68
2022-12-04T00:40:08.167Z,5.68
2022-12-04T00:43:10.383Z,5.67
2022-12-04T00:46:14.268Z,5.73
2022-12-04T00:49:16.575Z,5.66
2022-12-04T00:52:19.130Z,5.77
2022-12-04T00:55:21.390Z,5.59
2022-12-04T00:58:23.999Z,5.61
2022-12-04T01:01:30.419Z,5.62
2022-12-04T01:04:33.129Z,5.57
2022-12-04T01:07:35.410Z,5.56
2022-12-04T01:10:42.223Z,5.68
2022-12-04T01:13:45.087Z,5.56
2022-12-04T01:16:47.671Z,5.55
2022-12-04T01:19:50.179Z,5.56
2022-12-04T01:22:52.762Z,5.56
2022-12-04T01:25:58.400Z,5.65
2022-12-04T01:29:01.971Z,5.77
2022-12-04T01:32:04.625Z,5.76
2022-12-04T01:35:07.510Z,5.58
2022-12-04T01:38:09.729Z,5.77
2022-12-04T01:41:14.038Z,5.62
2022-12-04T01:44:21.174Z,5.59
2022-12-04T01:47:23.742Z,5.76
2022-12-04T01:50:26.001Z,5.76
2022-12-04T01:53:30.343Z,5.62
2022-12-04T01:56:43.207Z,5.54
2022-12-04T01:59:50.433Z,5.72
2022-12-04T02:02:53.021Z,5.57
2022-12-04T02:05:55.776Z,5.53
2022-12-04T02:08:58.038Z,5.50
2022-12-04T02:12:10.906Z,5.47
2022-12-04T02:15:39.413Z,5.61
2022-12-04T02:19:06.650Z,5.55
2022-12-04T02:22:29.972Z,5.51
2022-12-04T02:25:47.935Z,5.33
2022-12-04T02:28:57.734Z,5.43
2022-12-04T02:32:15.282Z,5.44
2022-12-04T02:35:41.833Z,5.43
2022-12-04T02:38:54.237Z,5.41
2022-12-04T02:42:05.089Z,5.20
2022-12-04T02:45:20.186Z,5.24
2022-12-04T02:48:25.514Z,5.37
2022-12-04T02:51:34.482Z,5.37
2022-12-04T02:54:41.395Z,5.36
2022-12-04T02:57:50.819Z,5.34
2022-12-04T03:00:55.885Z,5.24
2022-12-04T03:04:03.889Z,5.19
2022-12-04T03:07:16.888Z,5.17
2022-12-04T03:10:27.910Z,5.24
2022-12-04T03:13:37.930Z,5.07
2022-12-04T03:16:42.402Z,5.10
2022-12-04T03:19:54.543Z,5.02
2022-12-04T03:23:05.194Z,5.12
2022-12-04T03:26:26.501Z,4.98
2022-12-04T03:29:39.342Z,5.10
2022-12-04T03:33:13.046Z,5.04
2022-12-04T03:36:23.961Z,5.07
2022-12-04T03:39:46.570Z,5.03
2022-12-04T03:42:58.337Z,4.87
2022-12-04T03:46:17.572Z,5.02
2022-12-04T03:49:27.897Z,4.97
2022-12-04T03:52:34.478Z,4.81
2022-12-04T03:55:43.851Z,4.35
2022-12-04T03:58:50.503Z,4.96
2022-12-04T04:01:56.199Z,4.78
2022-12-04T04:05:01.407Z,4.90
2022-12-04T04:08:26.315Z,4.90
2022-12-04T04:11:38.514Z,4.89
2022-12-04T04:15:28.937Z,4.71
2022-12-04T04:18:51.333Z,4.82
2022-12-04T04:22:13.416Z,4.72
2022-12-04T04:25:24.313Z,4.74
2022-12-04T04:28:38.407Z,4.65
2022-12-04T04:31:47.213Z,4.75
2022-12-04T04:35:05.320Z,4.60
2022-12-04T04:38:23.683Z,4.78
2022-12-04T04:41:40.027Z,4.71
2022-12-04T04:45:07.014Z,4.70
2022-12-04T04:48:20.474Z,4.82
2022-12-04T04:51:23.933Z,4.88
2022-12-04T04:54:28.255Z,4.89
2022-12-04T04:57:35.743Z,4.75
2022-12-04T05:00:39.204Z,4.69
2022-12-04T05:03:42.324Z,4.87
2022-12-04T05:06:44.672Z,4.90
2022-12-04T05:09:47.203Z,4.78
2022-12-04T05:12:49.452Z,4.95
2022-12-04T05:16:00.005Z,4.98
2022-12-04T05:19:20.933Z,4.95
2022-12-04T05:22:29.555Z,5.03
2022-12-04T05:25:31.851Z,5.02
2022-12-04T05:28:34.529Z,4.95
2022-12-04T05:31:36.797Z,5.02
2022-12-04T05:34:39.558Z,4.85
2022-12-04T05:37:41.794Z,4.99
2022-12-04T05:40:44.322Z,5.01
2022-12-04T05:43:46.584Z,4.87
2022-12-04T05:46:52.030Z,5.00
2022-12-04T05:49:54.623Z,4.85
2022-12-04T05:52:57.363Z,4.75
2022-12-04T05:56:01.954Z,4.86
2022-12-04T05:59:04.471Z,4.75
2022-12-04T06:02:06.763Z,4.86
2022-12-04T06:05:09.326Z,4.66
2022-12-04T06:08:12.159Z,4.86
2022-12-04T06:11:18.950Z,4.68
2022-12-04T06:14:21.168Z,4.84
2022-12-04T06:17:23.837Z,4.76
2022-12-04T06:20:26.081Z,4.68
2022-12-04T06:23:28.597Z,4.84
2022-12-04T06:26:30.834Z,4.82
2022-12-04T06:29:33.917Z,4.82
2022-12-04T06:32:36.116Z,4.66
2022-12-04T06:35:38.640Z,4.82
2022-12-04T06:38:41.419Z,4.82
2022-12-04T06:41:43.920Z,4.66
2022-12-04T06:44:46.283Z,4.82
2022-12-04T06:47:48.773Z,4.83
2022-12-04T06:50:58.635Z,4.72
2022-12-04T06:54:02.046Z,4.65
2022-12-04T06:57:04.375Z,4.85
2022-12-04T07:00:07.590Z,4.88
2022-12-04T07:03:09.843Z,4.84
2022-12-04T07:06:16.253Z,4.92
2022-12-04T07:09:18.798Z,4.86
2022-12-04T07:12:21.450Z,4.88
2022-12-04T07:15:23.726Z,4.88
2022-12-04T07:18:26.256Z,5.04
2022-12-04T07:21:31.450Z,5.00
2022-12-04T07:24:33.958Z,5.12
2022-12-04T07:27:36.254Z,5.19
2022-12-04T07:30:38.937Z,5.11
2022-12-04T07:33:41.718Z,5.30
2022-12-04T07:36:44.339Z,5.33
2022-12-04T07:39:46.638Z,5.39
2022-12-04T07:42:49.218Z,5.43
2022-12-04T07:45:51.958Z,5.35
2022-12-04T07:48:58.724Z,5.42
2022-12-04T07:52:01.097Z,5.61
2022-12-04T07:55:05.455Z,5.54
2022-12-04T07:58:07.583Z,5.85
2022-12-04T08:01:12.390Z,5.93
2022-12-04T08:04:15.541Z,6.01
2022-12-04T08:07:18.584Z,6.09
2022-12-04T08:10:21.152Z,6.18
2022-12-04T08:13:23.539Z,6.41
2022-12-04T08:16:28.063Z,6.50
2022-12-04T08:19:30.358Z,6.66
2022-12-04T08:22:32.895Z,6.59
2022-12-04T08:25:39.493Z,6.77
2022-12-04T08:28:42.500Z,6.90
2022-12-04T08:31:44.870Z,7.06
2022-12-04T08:34:51.164Z,7.08
2022-12-04T08:37:57.780Z,7.46
2022-12-04T08:41:05.081Z,7.72
2022-12-04T08:44:07.535Z,7.85
2022-12-04T08:47:10.016Z,8.07
2022-12-04T08:50:13.769Z,8.19
2022-12-04T08:53:18.516Z,8.25
2022-12-04T08:56:24.443Z,8.30
2022-12-04T08:59:28.409Z,8.53
2022-12-04T09:02:32.754Z,8.56
2022-12-04T09:05:36.901Z,8.78
2022-12-04T09:08:40.903Z,8.83
2022-12-04T09:11:47.669Z,8.89
2022-12-04T09:14:50.721Z,9.04
2022-12-04T09:17:58.274Z,9.04
2022-12-04T09:21:05.930Z,9.10
2022-12-04T09:24:09.541Z,9.22
2022-12-04T09:27:14.864Z,9.18
2022-12-04T09:30:18.498Z,9.51
2022-12-04T09:33:22.240Z,9.69
2022-12-04T09:36:25.434Z,9.95
2022-12-04T09:39:27.695Z,10.13
2022-12-04T09:42:30.194Z,10.28
2022-12-04T09:45:50.210Z,10.46
2022-12-04T09:48:53.902Z,10.14
2022-12-04T09:52:00.611Z,10.30
2022-12-04T09:55:05.409Z,10.24
2022-12-04T09:58:14.170Z,10.40
2022-12-04T10:01:32.879Z,10.44
2022-12-04T10:04:35.475Z,10.70
2022-12-04T10:07:53.376Z,11.09
2022-12-04T10:11:13.829Z,11.89
2022-12-04T10:14:50.191Z,12.14
2022-12-04T10:18:04.375Z,12.42
2022-12-04T10:21:06.706Z,12.74
2022-12-04T10:24:36.301Z,12.85
2022-12-04T10:27:47.047Z,13.21
2022-12-04T10:30:52.559Z,13.33
2022-12-04T10:34:13.546Z,13.39
2022-12-04T10:37:16.605Z,13.95
2022-12-04T10:40:25.216Z,14.56
2022-12-04T10:43:45.058Z,14.97
2022-12-04T10:46:48.226Z,15.44
2022-12-04T10:49:59.684Z,15.58
2022-12-04T10:53:01.966Z,15.61
2022-12-04T10:56:28.628Z,16.09
2022-12-04T10:59:31.268Z,16.02
2022-12-04T11:02:34.691Z,16.11
2022-12-04T11:05:55.408Z,16.09
2022-12-04T11:08:59.465Z,15.85
2022-12-04T11:12:16.762Z,15.63
2022-12-04T11:15:19.399Z,15.96
2022-12-04T11:18:28.244Z,15.99
2022-12-04T11:21:32.405Z,15.88
2022-12-04T11:24:35.689Z,15.79
2022-12-04T11:27:38.137Z,15.80
2022-12-04T11:30:40.604Z,15.48
2022-12-04T11:33:54.537Z,15.19
2022-12-04T11:36:57.820Z,14.43
2022-12-04T11:40:03.471Z,14.15
2022-12-04T11:43:13.915Z,13.59
2022-12-04T11:46:22.371Z,13.41
2022-12-04T11:49:26.955Z,13.05
2022-12-04T11:52:43.698Z,12.86
2022-12-04T11:56:05.072Z,12.83
2022-12-04T11:59:32.506Z,12.40
2022-12-04T12:02:50.405Z,12.26
2022-12-04T12:05:53.809Z,12.18
2022-12-04T12:09:14.375Z,11.99
2022-12-04T12:12:35.293Z,11.78
2022-12-04T12:16:03.483Z,11.55
2022-12-04T12:19:33.236Z,11.81
2022-12-04T12:23:19.871Z,11.56
2022-12-04T12:26:26.792Z,11.54
2022-12-04T12:29:32.520Z,11.41
2022-12-04T12:33:14.333Z,11.27
2022-12-04T12:36:21.648Z,11.51
2022-12-04T12:39:31.554Z,11.30
2022-12-04T12:42:44.881Z,11.14
2022-12-04T12:46:18.234Z,10.76
2022-12-04T12:49:32.251Z,10.91
2022-12-04T12:52:47.867Z,10.71
2022-12-04T12:55:54.143Z,10.82
2022-12-04T12:59:00.730Z,10.61
2022-12-04T13:02:30.278Z,10.63
2022-12-04T13:05:40.960Z,10.63
2022-12-04T13:08:52.815Z,10.59
2022-12-04T13:12:15.812Z,10.61
2022-12-04T13:15:24.535Z,10.45
2022-12-04T13:18:32.349Z,10.46
2022-12-04T13:21:46.842Z,10.36
2022-12-04T13:24:55.885Z,10.17
2022-12-04T13:28:31.503Z,10.02
2022-12-04T13:31:38.416Z,10.11
2022-12-04T13:35:10.083Z,9.89
2022-12-04T13:38:28.878Z,9.80
2022-12-04T13:41:38.809Z,9.68
2022-12-04T13:44:41.388Z,9.66
2022-12-04T13:47:43.663Z,9.62
2022-12-04T13:50:46.240Z,9.53
2022-12-04T13:53:48.695Z,9.30
2022-12-04T13:56:55.495Z,9.31
2022-12-04T14:00:24.472Z,9.30
2022-12-04T14:03:34.629Z,9.17
2022-12-04T14:06:41.338Z,9.19
2022-12-04T14:09:53.258Z,9.12
2022-12-04T14:13:00.960Z,9.06
2022-12-04T14:16:15.793Z,8.97
2022-12-04T14:19:39.193Z,8.93
2022-12-04T14:22:44.247Z,8.93
2022-12-04T14:25:46.544Z,8.89
2022-12-04T14:28:50.447Z,8.67
2022-12-04T14:31:55.123Z,8.85
2022-12-04T14:34:58.995Z,8.70
2022-12-04T14:38:04.064Z,8.77
2022-12-04T14:41:06.845Z,8.72
2022-12-04T14:44:25.686Z,8.68
2022-12-04T14:47:54.327Z,8.56
2022-12-04T14:50:56.549Z,8.68
2022-12-04T14:54:17.611Z,8.64
2022-12-04T14:57:38.276Z,8.59
2022-12-04T15:00:50.325Z,8.55
2022-12-04T15:03:59.099Z,8.38
2022-12-04T15:07:02.540Z,8.29
2022-12-04T15:10:38.213Z,8.30
2022-12-04T15:13:41.179Z,8.30
2022-12-04T15:16:43.602Z,8.39
2022-12-04T15:19:46.339Z,8.42
2022-12-04T15:22:49.073Z,8.27
2022-12-04T15:25:54.528Z,8.21
2022-12-04T15:29:01.408Z,8.28
2022-12-04T15:32:12.006Z,8.32
2022-12-04T15:35:23.266Z,8.32
2022-12-04T15:38:26.609Z,8.28
2022-12-04T15:41:30.906Z,8.30
2022-12-04T15:44:35.349Z,8.29
2022-12-04T15:47:58.795Z,8.11
2022-12-04T15:51:07.139Z,8.27
2022-12-04T15:54:24.492Z,8.24
2022-12-04T15:57:31.379Z,8.11
2022-12-04T16:00:45.495Z,8.24
2022-12-04T16:03:51.266Z,8.06
2022-12-04T16:06:53.863Z,8.20
2022-12-04T16:10:03.548Z,8.05
2022-12-04T16:13:06.783Z,8.20
2022-12-04T16:16:14.546Z,8.19
2022-12-04T16:19:29.065Z,8.14
2022-12-04T16:22:32.138Z,8.16
2022-12-04T16:25:34.688Z,8.13
2022-12-04T16:28:37.258Z,8.13
2022-12-04T16:31:39.595Z,8.12
2022-12-04T16:34:42.264Z,8.11
2022-12-04T16:37:44.577Z,7.93
2022-12-04T16:40:48.536Z,8.05
2022-12-04T16:43:56.725Z,8.07
2022-12-04T16:46:59.330Z,7.98
2022-12-04T16:50:01.701Z,7.94
2022-12-04T16:53:04.269Z,8.08
2022-12-04T16:56:06.721Z,7.94
2022-12-04T16:59:12.201Z,7.98
2022-12-04T17:02:23.429Z,8.07
2022-12-04T17:05:29.212Z,8.04
2022-12-04T17:08:31.999Z,8.09
2022-12-04T17:11:34.610Z,8.08
2022-12-04T17:14:36.894Z,7.98
2022-12-04T17:17:40.200Z,7.91
2022-12-04T17:20:43.788Z,7.90
2022-12-04T17:23:46.424Z,7.92
2022-12-04T17:26:48.805Z,7.98
2022-12-04T17:29:51.490Z,8.05
2022-12-04T17:32:53.791Z,8.07
2022-12-04T17:36:00.309Z,7.99
2022-12-04T17:39:02.731Z,7.91
2022-12-04T17:42:05.336Z,8.07
2022-12-04T17:45:09.537Z,8.00
2022-12-04T17:48:12.205Z,7.94
2022-12-04T17:51:20.082Z,8.07
2022-12-04T17:54:23.044Z,7.99
2022-12-04T17:57:25.396Z,8.05
2022-12-04T18:00:28.041Z,8.05
2022-12-04T18:03:30.816Z,8.00
2022-12-04T18:06:44.291Z,8.01
2022-12-04T18:09:48.085Z,7.98
2022-12-04T18:12:50.607Z,7.84
2022-12-04T18:15:53.396Z,7.78
2022-12-04T18:18:57.093Z,7.95
2022-12-04T18:21:59.926Z,7.93
2022-12-04T18:25:02.531Z,7.90
2022-12-04T18:28:05.252Z,7.79
2022-12-04T18:31:08.677Z,7.92
2022-12-04T18:34:14.276Z,7.92
2022-12-04T18:37:16.571Z,7.92
2022-12-04T18:40:22.131Z,7.90
2022-12-04T18:43:24.538Z,7.86
2022-12-04T18:46:27.251Z,7.80
2022-12-04T18:49:29.725Z,7.84
2022-12-04T18:52:35.792Z,7.86
2022-12-04T18:55:38.571Z,7.80
2022-12-04T18:58:41.430Z,7.82
2022-12-04T19:01:44.250Z,7.66
2022-12-04T19:04:46.897Z,7.64
2022-12-04T19:07:50.441Z,7.80
2022-12-04T19:10:53.050Z,7.61
2022-12-04T19:13:55.745Z,7.71
2022-12-04T19:16:58.491Z,7.75
2022-12-04T19:20:01.620Z,7.76
2022-12-04T19:23:04.224Z,7.73
2022-12-04T19:26:06.724Z,7.66
2022-12-04T19:29:12.887Z,7.53
2022-12-04T19:32:15.321Z,7.51
2022-12-04T19:35:17.933Z,7.65
2022-12-04T19:38:20.221Z,7.53
2022-12-04T19:41:25.826Z,7.67
2022-12-04T19:47:50.801Z,7.52
2022-12-04T19:50:54.211Z,7.53
2022-12-04T19:53:56.773Z,7.57
2022-12-04T19:56:59.013Z,7.53
2022-12-04T20:00:02.113Z,7.54
2022-12-04T20:03:13.917Z,7.41
2022-12-04T20:06:19.375Z,7.56
2022-12-04T20:09:22.420Z,7.54
2022-12-04T20:12:25.052Z,7.50
2022-12-04T20:15:27.260Z,7.49
2022-12-04T20:18:30.186Z,7.35
2022-12-04T20:21:32.843Z,7.51
2022-12-04T20:24:35.659Z,7.36
2022-12-04T20:27:37.960Z,7.37
2022-12-04T20:30:40.906Z,7.34
2022-12-04T20:33:44.160Z,7.46
2022-12-04T20:36:51.224Z,7.44
2022-12-04T20:39:56.898Z,7.25
2022-12-04T20:42:59.711Z,7.44
2022-12-04T20:46:02.176Z,7.41
2022-12-04T20:49:08.010Z,7.24
2022-12-04T20:52:11.182Z,7.38
2022-12-04T20:55:13.741Z,7.37
2022-12-04T20:58:16.020Z,7.30
2022-12-04T21:01:19.392Z,6.85
2022-12-04T21:04:22.126Z,7.29
2022-12-04T21:07:24.857Z,7.29
2022-12-04T21:10:27.262Z,7.13
2022-12-04T21:13:48.388Z,7.12
2022-12-04T21:16:51.076Z,7.26
2022-12-04T21:19:53.642Z,7.08
2022-12-04T21:22:56.119Z,7.18
2022-12-04T21:25:58.651Z,7.20
2022-12-04T21:29:02.272Z,7.18
2022-12-04T21:32:06.229Z,7.01
2022-12-04T21:35:08.818Z,7.13
2022-12-04T21:38:11.303Z,6.98
2022-12-04T21:41:36.613Z,7.11
2022-12-04T21:44:39.218Z,7.05
2022-12-04T21:47:41.546Z,7.06
2022-12-04T21:50:44.147Z,7.10
2022-12-04T21:53:46.473Z,7.07
2022-12-04T21:56:48.999Z,6.97
2022-12-04T21:59:52.382Z,6.99
2022-12-04T22:02:54.996Z,6.92
2022-12-04T22:05:59.994Z,6.94
2022-12-04T22:09:03.945Z,6.88
2022-12-04T22:12:26.275Z,6.98
2022-12-04T22:15:29.107Z,6.97
2022-12-04T22:18:33.596Z,6.84
2022-12-04T22:21:35.841Z,6.84
2022-12-04T22:24:38.378Z,6.83
2022-12-04T22:27:40.732Z,6.97
2022-12-04T22:30:43.607Z,6.95
2022-12-04T22:33:48.204Z,6.76
2022-12-04T22:36:50.893Z,6.93
2022-12-04T22:39:53.163Z,6.79
2022-12-04T22:42:55.686Z,6.75
2022-12-04T22:45:58.863Z,6.93
2022-12-04T22:49:01.437Z,6.92
2022-12-04T22:52:03.829Z,6.76
2022-12-04T22:55:06.571Z,6.92
2022-12-04T22:58:08.802Z,6.74
2022-12-04T23:01:22.675Z,6.83
2022-12-04T23:04:24.961Z,6.78
2022-12-04T23:07:27.462Z,6.68
2022-12-04T23:10:29.810Z,6.71
2022-12-04T23:13:32.384Z,6.57
2022-12-04T23:16:37.096Z,6.54
2022-12-04T23:19:39.695Z,6.56
2022-12-04T23:22:41.961Z,6.52
2022-12-04T23:25:44.468Z,6.67
2022-12-04T23:28:47.391Z,6.52
2022-12-04T23:31:50.006Z,6.57
2022-12-04T23:34:53.131Z,6.46
2022-12-04T23:37:55.659Z,6.61
2022-12-04T23:41:03.000Z,6.57
2022-12-04T23:44:05.519Z,6.59
2022-12-04T23:47:07.732Z,6.42
2022-12-04T23:50:10.598Z,6.54
2022-12-04T23:53:13.114Z,6.43
2022-12-04T23:56:17.425Z,6.45
2022-12-04T23:59:21.324Z,6.59
